Radium Hot Springs, Canada
Current Conditions -  °F | °C
As of 5:00 AM on Friday 24 Oct 2014 (Local Time) from CYXC Reporting Station
Scattered Clouds Scattered Clouds  
Wind Chill: 37°   Ceiling: Unl
Heat Index: 37°   Visibility: 20mi
Dew Point: 32°   Wind: 0mph
Humidity: 81%   Direction: NA
Pressure: 29.95"   Gusts: NA
Location:  50.62°N, 116.08°W
Report Text: CYXC 241100Z 00000KT 20SM SCT080 03/M00 A2995 RMK AC3 SLP159
Loading
Personal Weather Stations






























Interactive Weather Map
Tropical Storm Tracking
New forecast layout! Learn more

10-Day Weather Forecast

Advertisements
Track Severe Weather on mobile